createdAt,value
2022-11-12T00:00:54.369Z,136.88
2022-11-12T00:04:01.594Z,129.93
2022-11-12T00:07:08.572Z,138.68
2022-11-12T00:10:15.571Z,128.15
2022-11-12T00:13:29.484Z,141.52
2022-11-12T00:16:37.643Z,135.45
2022-11-12T00:19:37.832Z,134.25
2022-11-12T00:22:44.570Z,135.93
2022-11-12T00:25:52.596Z,134.55
2022-11-12T00:28:59.496Z,140.55
2022-11-12T00:32:00.021Z,136.07
2022-11-12T00:35:07.754Z,143.55
2022-11-12T00:38:09.854Z,146.73
2022-11-12T00:41:17.557Z,157.48
2022-11-12T00:44:17.847Z,157.43
2022-11-12T00:47:25.575Z,150.15
2022-11-12T00:50:25.873Z,141.65
2022-11-12T00:53:32.512Z,143.98
2022-11-12T00:56:36.211Z,149.57
2022-11-12T00:59:43.531Z,151.55
2022-11-12T01:02:50.424Z,158.15
2022-11-12T01:05:57.480Z,155.02
2022-11-12T01:08:58.912Z,138.40
2022-11-12T01:12:06.472Z,138.27
2022-11-12T01:15:06.895Z,141.98
2022-11-12T01:18:13.628Z,147.20
2022-11-12T01:21:15.949Z,138.80
2022-11-12T01:24:23.468Z,131.48
2022-11-12T01:27:31.937Z,126.70
2022-11-12T01:30:31.741Z,140.70
2022-11-12T01:33:39.483Z,127.50
2022-11-12T01:36:41.825Z,132.48
2022-11-12T01:39:48.491Z,135.35
2022-11-12T01:42:58.393Z,143.50
2022-11-12T01:46:07.559Z,134.18
2022-11-12T01:49:20.549Z,148.40
2022-11-12T01:52:51.573Z,142.65
2022-11-12T01:56:00.546Z,158.15
2022-11-12T01:59:08.863Z,146.70
2022-11-12T02:02:16.552Z,139.65
2022-11-12T02:05:19.320Z,145.68
2022-11-12T02:08:27.722Z,155.05
2022-11-12T02:11:41.405Z,153.10
2022-11-12T02:14:49.552Z,149.32
2022-11-12T02:17:49.980Z,141.40
2022-11-12T02:21:06.571Z,165.85
2022-11-12T02:24:08.823Z,159.50
2022-11-12T02:27:17.565Z,161.00
2022-11-12T02:30:18.845Z,159.93
2022-11-12T02:33:26.781Z,151.32
2022-11-12T02:36:27.827Z,143.90
2022-11-12T02:39:35.488Z,139.73
2022-11-12T02:42:42.455Z,135.32
2022-11-12T02:45:42.876Z,138.23
2022-11-12T02:48:50.537Z,136.90
2022-11-12T02:51:57.570Z,132.45
2022-11-12T02:55:04.526Z,125.45
2022-11-12T02:58:11.543Z,130.57
2022-11-12T03:01:11.882Z,128.57
2022-11-12T03:04:19.833Z,129.65
2022-11-12T03:07:19.869Z,132.90
2022-11-12T03:10:27.547Z,120.20
2022-11-12T03:13:40.543Z,120.50
2022-11-12T03:16:47.552Z,122.05
2022-11-12T03:19:48.838Z,130.80
2022-11-12T03:23:14.475Z,118.63
2022-11-12T03:26:14.807Z,102.75
2022-11-12T03:29:21.523Z,105.50
2022-11-12T03:32:21.822Z,101.47
2022-11-12T03:35:22.533Z,100.07
2022-11-12T03:38:22.818Z,102.22
2022-11-12T03:41:29.521Z,84.47
2022-11-12T03:44:36.550Z,91.57
2022-11-12T03:47:36.925Z,108.32
2022-11-12T03:50:43.520Z,90.80
2022-11-12T03:53:50.515Z,90.63
2022-11-12T03:56:51.779Z,85.03
2022-11-12T03:59:58.559Z,87.70
2022-11-12T04:03:00.726Z,82.35
2022-11-12T04:06:25.531Z,78.65
2022-11-12T04:09:25.718Z,75.15
2022-11-12T04:12:51.545Z,77.65
2022-11-12T04:16:18.553Z,78.93
2022-11-12T04:19:39.130Z,58.97
2022-11-12T04:22:45.560Z,55.78
2022-11-12T04:26:06.174Z,46.28
2022-11-12T04:29:37.260Z,51.45
2022-11-12T04:32:39.827Z,57.38
2022-11-12T04:35:47.467Z,55.30
2022-11-12T04:38:48.822Z,55.30
2022-11-12T04:42:13.460Z,57.67
2022-11-12T04:45:18.790Z,55.97
2022-11-12T04:48:27.840Z,65.95
2022-11-12T04:51:46.146Z,97.07
2022-11-12T04:54:52.467Z,101.13
2022-11-12T04:58:01.045Z,108.10
2022-11-12T05:01:03.147Z,108.57
2022-11-12T05:04:10.537Z,103.93
2022-11-12T05:07:11.505Z,113.85
2022-11-12T05:10:19.542Z,119.93
2022-11-12T05:13:29.290Z,95.50
2022-11-12T05:16:30.525Z,99.47
2022-11-12T05:19:37.617Z,81.97
2022-11-12T05:22:47.874Z,99.25
2022-11-12T05:26:01.541Z,95.30
2022-11-12T05:29:07.587Z,88.40
2022-11-12T05:32:16.525Z,62.90
2022-11-12T05:35:23.522Z,66.97
2022-11-12T05:38:25.145Z,75.35
2022-11-12T05:41:57.970Z,71.72
2022-11-12T05:45:01.449Z,69.82
2022-11-12T05:48:03.264Z,66.07
2022-11-12T05:51:13.642Z,88.68
2022-11-12T05:54:21.529Z,69.63
2022-11-12T05:57:28.441Z,68.47
2022-11-12T06:00:35.522Z,71.97
2022-11-12T06:03:36.168Z,83.10
2022-11-12T06:06:44.622Z,76.18
2022-11-12T06:09:45.663Z,59.22
2022-11-12T06:12:52.531Z,51.78
2022-11-12T06:16:02.531Z,44.85
2022-11-12T06:19:02.858Z,49.67
2022-11-12T06:22:09.526Z,46.50
2022-11-12T06:25:16.507Z,37.38
2022-11-12T06:28:23.594Z,37.20
2022-11-12T06:31:31.525Z,43.25
2022-11-12T06:34:38.529Z,35.92
2022-11-12T06:37:46.511Z,38.00
2022-11-12T06:40:53.531Z,47.78
2022-11-12T06:44:01.528Z,44.80
2022-11-12T06:47:08.535Z,48.13
2022-11-12T06:50:08.803Z,45.75
2022-11-12T06:53:15.530Z,51.30
2022-11-12T06:56:22.581Z,48.60
2022-11-12T06:59:23.713Z,46.75
2022-11-12T07:02:31.531Z,36.95
2022-11-12T07:05:38.547Z,32.80
2022-11-12T07:08:46.588Z,36.33
2022-11-12T07:11:59.396Z,27.15
2022-11-12T07:15:06.507Z,35.53
2022-11-12T07:18:13.574Z,39.17
2022-11-12T07:21:17.690Z,34.20
2022-11-12T07:24:24.530Z,25.88
2022-11-12T07:27:24.895Z,25.00
2022-11-12T07:30:32.543Z,25.80
2022-11-12T07:33:34.063Z,34.88
2022-11-12T07:36:41.509Z,24.83
2022-11-12T07:39:49.444Z,20.30
2022-11-12T07:42:56.520Z,26.08
2022-11-12T07:46:01.934Z,25.40
2022-11-12T07:49:10.586Z,24.95
2022-11-12T07:52:10.791Z,23.67
2022-11-12T07:55:18.493Z,27.33
2022-11-12T07:58:25.921Z,31.40
2022-11-12T08:01:55.526Z,25.60
2022-11-12T08:04:56.804Z,21.67
2022-11-12T08:08:04.552Z,22.70
2022-11-12T08:11:18.376Z,19.58
2022-11-12T08:14:25.447Z,25.40
2022-11-12T08:17:26.805Z,24.67
2022-11-12T08:20:34.519Z,24.13
2022-11-12T08:23:36.348Z,25.83
2022-11-12T08:26:44.505Z,27.17
2022-11-12T08:29:44.810Z,29.00
2022-11-12T08:32:51.425Z,24.08
2022-11-12T08:35:58.536Z,27.83
2022-11-12T08:38:59.690Z,27.45
2022-11-12T08:42:06.532Z,22.08
2022-11-12T08:45:13.527Z,22.13
2022-11-12T08:48:19.988Z,22.52
2022-11-12T08:51:27.429Z,28.55
2022-11-12T08:54:27.859Z,21.60
2022-11-12T08:57:34.599Z,24.25
2022-11-12T09:00:45.800Z,21.65
2022-11-12T09:03:52.522Z,17.25
2022-11-12T09:06:54.122Z,21.98
2022-11-12T09:10:01.513Z,14.50
2022-11-12T09:13:15.390Z,20.00
2022-11-12T09:16:22.442Z,20.42
2022-11-12T09:19:24.910Z,15.15
2022-11-12T09:22:31.593Z,21.65
2022-11-12T09:25:32.971Z,19.95
2022-11-12T09:28:41.523Z,27.75
2022-11-12T09:31:41.863Z,28.77
2022-11-12T09:34:48.539Z,29.88
2022-11-12T09:37:55.507Z,22.50
2022-11-12T09:41:12.329Z,21.63
2022-11-12T09:44:36.677Z,22.98
2022-11-12T09:47:44.671Z,22.08
2022-11-12T09:51:06.515Z,20.77
2022-11-12T09:54:27.076Z,27.63
2022-11-12T09:57:34.573Z,26.75
2022-11-12T10:00:35.428Z,24.25
2022-11-12T10:03:54.420Z,24.77
2022-11-12T10:07:01.716Z,21.75
2022-11-12T10:10:28.439Z,19.40
2022-11-12T10:14:08.534Z,26.58
2022-11-12T10:17:57.496Z,30.33
2022-11-12T10:21:23.519Z,17.42
2022-11-12T10:24:31.431Z,26.30
2022-11-12T10:27:47.520Z,23.48
2022-11-12T10:30:48.519Z,26.08
2022-11-12T10:33:56.597Z,23.38
2022-11-12T10:37:06.373Z,26.52
2022-11-12T10:40:13.588Z,28.85
2022-11-12T10:43:38.353Z,25.60
2022-11-12T10:46:46.417Z,32.83
2022-11-12T10:49:46.779Z,25.02
2022-11-12T10:53:14.528Z,22.35
2022-11-12T10:56:45.416Z,22.10
2022-11-12T10:59:53.529Z,23.55
2022-11-12T11:03:02.421Z,21.27
2022-11-12T11:06:09.003Z,18.58
2022-11-12T11:09:29.596Z,21.55
2022-11-12T11:12:29.660Z,21.08
2022-11-12T11:15:38.511Z,32.00
2022-11-12T11:18:49.439Z,21.88
2022-11-12T11:22:03.418Z,24.05
2022-11-12T11:25:31.539Z,17.30
2022-11-12T11:29:40.513Z,21.65
2022-11-12T11:32:49.411Z,29.20
2022-11-12T11:35:56.423Z,25.85
2022-11-12T11:39:26.806Z,24.60
2022-11-12T11:43:20.409Z,29.92
2022-11-12T11:46:28.531Z,33.88
2022-11-12T11:50:01.769Z,33.63
2022-11-12T11:53:33.514Z,40.95
2022-11-12T11:56:43.811Z,64.28
2022-11-12T12:00:30.491Z,54.47
2022-11-12T12:03:51.816Z,51.92
2022-11-12T12:07:07.591Z,52.08
2022-11-12T12:10:46.289Z,48.05
2022-11-12T12:14:08.501Z,47.22
2022-11-12T12:17:24.739Z,44.83
2022-11-12T12:20:48.508Z,37.20
2022-11-12T12:23:54.779Z,45.05
2022-11-12T12:27:27.510Z,48.88
2022-11-12T12:30:32.111Z,42.90
2022-11-12T12:34:10.489Z,37.00
2022-11-12T12:37:32.801Z,37.45
2022-11-12T12:40:49.526Z,42.97
2022-11-12T12:43:59.198Z,43.45
2022-11-12T12:47:08.540Z,60.30
2022-11-12T12:50:11.958Z,53.28
2022-11-12T12:53:35.408Z,40.93
2022-11-12T12:59:47.734Z,53.92
2022-11-12T13:02:55.494Z,59.50
2022-11-12T13:06:25.998Z,49.00
2022-11-12T13:09:32.572Z,55.47
2022-11-12T13:13:19.353Z,42.45
2022-11-12T13:16:58.417Z,58.88
2022-11-12T13:20:02.602Z,49.72
2022-11-12T13:23:09.516Z,45.45
2022-11-12T13:26:48.825Z,58.53
2022-11-12T13:29:56.490Z,59.90
2022-11-12T13:32:56.798Z,54.63
2022-11-12T13:36:40.547Z,66.80
2022-11-12T13:39:43.924Z,53.13
2022-11-12T13:42:57.518Z,65.15
2022-11-12T13:46:24.500Z,67.22
2022-11-12T13:49:24.994Z,57.40
2022-11-12T13:52:34.498Z,70.63
2022-11-12T13:55:35.673Z,62.55
2022-11-12T13:58:51.392Z,61.47
2022-11-12T14:01:53.155Z,65.63
2022-11-12T14:05:01.499Z,75.05
2022-11-12T14:08:17.498Z,67.20
2022-11-12T14:11:51.487Z,59.47
2022-11-12T14:15:03.790Z,63.23
2022-11-12T14:18:18.481Z,57.83
2022-11-12T14:21:19.586Z,76.03
2022-11-12T14:24:27.471Z,73.10
2022-11-12T14:27:38.462Z,59.80
2022-11-12T14:30:45.472Z,67.15
2022-11-12T14:33:53.421Z,72.53
2022-11-12T14:37:03.414Z,69.85
2022-11-12T14:40:11.567Z,85.38
2022-11-12T14:43:18.019Z,69.75
2022-11-12T14:46:54.425Z,74.47
2022-11-12T14:49:57.818Z,65.63
2022-11-12T14:53:14.401Z,78.67
2022-11-12T14:56:20.770Z,72.20
2022-11-12T14:59:28.472Z,67.25
2022-11-12T15:02:55.669Z,76.80
2022-11-12T15:06:05.387Z,71.03
2022-11-12T15:09:09.464Z,65.18
2022-11-12T15:15:28.746Z,71.55
2022-11-12T15:18:38.404Z,66.78
2022-11-12T15:21:46.497Z,71.88
2022-11-12T15:24:49.621Z,66.30
2022-11-12T15:27:58.554Z,74.05
2022-11-12T15:31:07.970Z,63.78
2022-11-12T15:34:35.498Z,78.07
2022-11-12T15:37:43.919Z,93.60
2022-11-12T15:40:57.844Z,93.15
2022-11-12T15:43:58.462Z,75.15
2022-11-12T15:47:07.450Z,86.45
2022-11-12T15:50:17.829Z,64.93
2022-11-12T15:53:24.579Z,79.72
2022-11-12T15:56:25.896Z,79.75
2022-11-12T15:59:33.420Z,91.78
2022-11-12T16:02:34.578Z,83.55
2022-11-12T16:05:41.410Z,73.72
2022-11-12T16:08:49.476Z,70.72
2022-11-12T16:11:57.422Z,67.63
2022-11-12T16:15:10.376Z,84.88
2022-11-12T16:18:13.936Z,78.03
2022-11-12T16:21:21.083Z,92.13
2022-11-12T16:24:22.711Z,71.70
2022-11-12T16:27:30.484Z,75.05
2022-11-12T16:30:33.656Z,80.72
2022-11-12T16:33:40.478Z,77.72
2022-11-12T16:36:41.924Z,73.82
2022-11-12T16:39:49.557Z,86.00
2022-11-12T16:42:51.058Z,81.13
2022-11-12T16:45:59.414Z,79.15
2022-11-12T16:48:59.707Z,76.03
2022-11-12T16:52:06.475Z,78.18
2022-11-12T16:55:08.374Z,81.95
2022-11-12T16:58:15.486Z,77.45
2022-11-12T17:01:30.476Z,79.50
2022-11-12T17:04:40.495Z,77.82
2022-11-12T17:07:47.470Z,69.75
2022-11-12T17:10:54.488Z,78.10
2022-11-12T17:14:01.486Z,83.53
2022-11-12T17:17:01.768Z,91.30
2022-11-12T17:20:09.376Z,92.68
2022-11-12T17:23:16.376Z,88.40
2022-11-12T17:26:26.501Z,82.38
2022-11-12T17:29:33.472Z,89.00
2022-11-12T17:32:34.262Z,84.40
2022-11-12T17:35:42.488Z,107.25
2022-11-12T17:38:44.339Z,82.22
2022-11-12T17:41:51.461Z,87.70
2022-11-12T17:44:52.695Z,82.85
2022-11-12T17:47:59.451Z,96.43
2022-11-12T17:51:27.482Z,95.32
2022-11-12T17:54:28.762Z,82.90
2022-11-12T17:57:35.455Z,84.78
2022-11-12T18:00:36.728Z,92.75
2022-11-12T18:03:47.482Z,92.50
2022-11-12T18:06:47.819Z,97.50
2022-11-12T18:09:54.409Z,89.80
2022-11-12T18:13:01.550Z,99.10
2022-11-12T18:16:13.508Z,89.03
2022-11-12T18:19:23.467Z,104.15
2022-11-12T18:22:23.711Z,108.45
2022-11-12T18:25:31.750Z,102.32
2022-11-12T18:28:38.472Z,93.35
2022-11-12T18:31:41.490Z,94.22
2022-11-12T18:34:52.522Z,96.55
2022-11-12T18:37:53.888Z,103.75
2022-11-12T18:41:09.475Z,108.55
2022-11-12T18:44:19.879Z,108.40
2022-11-12T18:47:21.934Z,108.60
2022-11-12T18:50:29.465Z,112.93
2022-11-12T18:53:31.078Z,120.32
2022-11-12T18:56:37.464Z,110.05
2022-11-12T18:59:44.706Z,115.63
2022-11-12T19:02:52.505Z,118.38
2022-11-12T19:06:06.452Z,105.95
2022-11-12T19:09:12.829Z,116.88
2022-11-12T19:12:20.455Z,113.07
2022-11-12T19:15:27.909Z,110.57
2022-11-12T19:18:28.678Z,116.80
2022-11-12T19:21:29.942Z,112.22
2022-11-12T19:24:36.460Z,104.07
2022-11-12T19:27:37.858Z,128.40
2022-11-12T19:30:44.360Z,124.97
2022-11-12T19:33:53.380Z,123.25
2022-11-12T19:37:31.584Z,118.50
2022-11-12T19:40:21.024Z,129.70
2022-11-12T19:43:29.373Z,112.03
2022-11-12T19:46:32.791Z,136.50
2022-11-12T19:49:40.369Z,121.00
2022-11-12T19:52:41.642Z,121.00
2022-11-12T19:55:49.361Z,126.13
2022-11-12T19:58:51.156Z,128.93
2022-11-12T20:01:59.360Z,110.78
2022-11-12T20:05:06.489Z,121.63
2022-11-12T20:08:06.891Z,116.20
2022-11-12T20:11:13.421Z,110.10
2022-11-12T20:14:21.364Z,116.30
2022-11-12T20:17:28.447Z,119.53
2022-11-12T20:20:35.352Z,125.28
2022-11-12T20:23:43.451Z,123.88
2022-11-12T20:26:44.734Z,116.32
2022-11-12T20:29:51.374Z,121.78
2022-11-12T20:32:58.752Z,134.75
2022-11-12T20:36:08.136Z,141.05
2022-11-12T20:39:15.448Z,120.80
2022-11-12T20:42:22.446Z,116.28
2022-11-12T20:45:22.732Z,122.15
2022-11-12T20:48:30.546Z,117.55
2022-11-12T20:51:34.009Z,121.97
2022-11-12T20:54:40.432Z,120.95
2022-11-12T20:57:41.777Z,126.20
2022-11-12T21:00:49.447Z,133.45
2022-11-12T21:03:58.442Z,124.88
2022-11-12T21:07:04.863Z,114.05
2022-11-12T21:10:12.346Z,119.82
2022-11-12T21:13:12.612Z,132.45
2022-11-12T21:16:21.432Z,139.50
2022-11-12T21:19:21.704Z,135.73
2022-11-12T21:22:29.411Z,138.50
2022-11-12T21:25:29.630Z,137.30
2022-11-12T21:28:37.476Z,151.63
2022-11-12T21:31:37.667Z,137.18
2022-11-12T21:34:44.445Z,134.70
2022-11-12T21:37:44.638Z,131.98
2022-11-12T21:40:51.342Z,121.57
2022-11-12T21:43:52.264Z,143.07
2022-11-12T21:46:59.340Z,146.70
2022-11-12T21:49:59.632Z,138.15
2022-11-12T21:53:06.434Z,141.73
2022-11-12T21:56:13.961Z,150.77
2022-11-12T21:59:21.343Z,140.23
2022-11-12T22:02:21.629Z,150.43
2022-11-12T22:05:29.352Z,147.77
2022-11-12T22:08:30.822Z,132.07
2022-11-12T22:11:38.357Z,133.57
2022-11-12T22:14:52.430Z,136.85
2022-11-12T22:17:53.589Z,141.13
2022-11-12T22:21:11.430Z,147.75
2022-11-12T22:24:12.903Z,137.60
2022-11-12T22:27:19.446Z,129.90
2022-11-12T22:30:19.626Z,132.40
2022-11-12T22:33:26.323Z,144.48
2022-11-12T22:36:29.646Z,131.07
2022-11-12T22:39:37.340Z,135.00
2022-11-12T22:42:45.424Z,135.70
2022-11-12T22:45:52.329Z,142.75
2022-11-12T22:49:01.358Z,142.15
2022-11-12T22:52:01.774Z,139.43
2022-11-12T22:55:08.353Z,143.88
2022-11-12T22:58:08.750Z,144.43
2022-11-12T23:01:18.445Z,147.18
2022-11-12T23:04:18.723Z,139.50
2022-11-12T23:07:26.415Z,131.25
2022-11-12T23:10:26.681Z,144.85
2022-11-12T23:13:35.333Z,142.25
2022-11-12T23:16:45.446Z,132.68
2022-11-12T23:19:52.415Z,138.27
2022-11-12T23:22:53.067Z,139.20
2022-11-12T23:26:00.340Z,134.23
2022-11-12T23:29:08.411Z,137.15
2022-11-12T23:32:08.601Z,131.85
2022-11-12T23:35:15.417Z,143.82
2022-11-12T23:38:15.621Z,145.55
2022-11-12T23:41:24.448Z,137.25
2022-11-12T23:44:25.627Z,149.65
2022-11-12T23:47:32.433Z,138.43
2022-11-12T23:50:32.608Z,142.15
2022-11-12T23:53:39.343Z,134.60
2022-11-12T23:56:46.338Z,141.30
2022-11-12T23:59:46.714Z,136.05
